Claremont, California
Current Conditions -  °F | °C
As of 12:53 PM on Sunday 23 Nov 2014 (Local Time) from KONT Reporting Station
Few Clouds Few Clouds  
Wind Chill: 79°   Ceiling: Unl
Heat Index: 79°   Visibility: 10mi
Dew Point: 14°   Wind: 10mph
Humidity: 9%   Direction: 20°NNE
Pressure: 30.07"   Gusts: 18mph
Location:  34.1°N, 117.71°W
Report Text: KONT 232053Z 02009G16KT 330V040 10SM FEW250 26/M10 A3007 RMK AO2 PK WND 04033/2011 SLP172 T02611100 56022
Loading
Personal Weather Stations






























Interactive Weather Map New forecast layout! Learn more

10-Day Weather Forecast

Advertisements
Track Severe Weather on mobile